Aérodrome :
LOGIN :

S'inscrire | Disclaimer

   EN    FR    IT 

 










Légende :    VFR   VFR Marginal   IFR   IFR Intensif   IFR Très Intensif
Visi : 
Plafond : 
>= 8 km
>= 3000ft
5 à 8 km
1000 à 3000 ft
1500m à 5 km
500 à 1000 ft
800 à 1500m
200 à 500 ft
< 800m
< 200 ft
Symboles :   Orages  Brouillard  Fortes neiges  Fortes précipitations  Vent > 20 kt
SIGMETs :   Divers  Orages  Givrage  Turbulence  Onde Orograph.  Cendres Volcan.






- Altitude de l'aérodrome : 374 ft
- Code IATA : LIS


LPPT - Lisboa Portela

DERNIER METAR :
  • 291400Z 08006KT 040V120 CAVOK 28/11 Q1015

METARs EXPIRÉS :
  • 291330Z VRB05KT CAVOK 27/12 Q1016
  • 291300Z 05005KT 010V120 CAVOK 27/13 Q1016
  • 291230Z VRB05KT CAVOK 27/14 Q1016
  • 291200Z VRB04KT CAVOK 26/14 Q1017
  • 291130Z 09004KT 040V160 CAVOK 25/14 Q1017

TAF TAF LPPT
Valide du 29 à 12h jusqu'au 30 à 18h UTC


291100Z 2912/3018 06005KT CAVOK
BECMG 2913/2915 32010KT
BECMG 2923/3001 35007KT
BECMG 3013/3015 33012KT



MET'MAP, la Météo Aéronautique d'un coup d'oeil ! - Copyright ORBIFLY Décembre 2007 - Disclaimer

ORBIFLY MET'MAP TEAM :

Programmation & Développement : Alexandra Zaïnal
Sur une idée originale de : Baudouin d'Aumeries
Assistance à la programmation : Marc-Olivier Méhu
Soutien technique & logistique : Manuel Goepfert

Contact : metmap@orbifly.com




SOURCES & CREDITS :

   NOAA